Time;durP1;ratioP1;P1;durP2;ratioP2;P2;SDS_P1;SDS_P2;PMS_P1;PMS_P2;Temp;Humidity;BMP_temperature;BMP_pressure;BME280_temperature;BME280_humidity;BME280_pressure;Samples;Min_cycle;Max_cycle;Signal;HPM_P1;HPM_P2
2022/05/02 00:01:25;;;;;;;6.93;5.20;;;8.60;99.90;;;;;;5111212;28;20420;-76
2022/05/02 00:03:50;;;;;;;7.53;5.17;;;8.50;99.90;;;;;;5111038;28;20905;-76
2022/05/02 00:06:16;;;;;;;8.50;5.30;;;8.50;99.90;;;;;;5110906;28;20397;-77
2022/05/02 00:08:42;;;;;;;8.23;5.70;;;8.50;99.90;;;;;;5110621;28;20506;-76
2022/05/02 00:11:08;;;;;;;6.80;5.57;;;8.50;99.90;;;;;;5092768;28;20396;-76
2022/05/02 00:13:33;;;;;;;8.37;5.40;;;8.40;99.90;;;;;;5111256;28;20487;-76
2022/05/02 00:15:59;;;;;;;8.50;5.78;;;8.40;99.90;;;;;;5110409;28;20956;-76
2022/05/02 00:18:24;;;;;;;8.60;5.63;;;8.40;99.90;;;;;;5110273;28;20406;-76
2022/05/02 00:20:50;;;;;;;8.82;6.03;;;8.30;99.90;;;;;;5110977;28;20761;-76
2022/05/02 00:23:16;;;;;;;10.20;6.30;;;8.20;99.90;;;;;;5092404;28;20412;-77
2022/05/02 00:25:41;;;;;;;9.15;6.13;;;8.10;99.90;;;;;;5110602;28;20424;-77
2022/05/02 00:28:12;;;;;;;8.07;5.90;;;8.10;99.90;;;;;;5110640;28;20456;-77
2022/05/02 00:30:38;;;;;;;8.33;5.90;;;8.00;99.90;;;;;;5110749;28;20396;-76
2022/05/02 00:33:03;;;;;;;8.57;6.27;;;8.00;99.90;;;;;;5110486;28;20448;-76
2022/05/02 00:35:29;;;;;;;8.55;6.15;;;8.00;99.90;;;;;;5092452;28;20397;-76
2022/05/02 00:37:55;;;;;;;7.80;5.60;;;7.90;99.90;;;;;;5110097;28;20396;-76
2022/05/02 00:40:21;;;;;;;8.13;6.10;;;7.90;99.90;;;;;;5110615;28;20404;-76
2022/05/02 00:42:47;;;;;;;8.48;6.03;;;7.90;99.90;;;;;;5092070;28;20889;-78
2022/05/02 00:45:15;;;;;;;8.18;6.13;;;7.80;99.90;;;;;;5091971;28;20949;-79
2022/05/02 00:47:49;;;;;;;9.55;6.00;;;7.80;99.90;;;;;;5092173;28;20962;-76
2022/05/02 00:50:15;;;;;;;7.78;5.72;;;7.70;99.90;;;;;;5092189;28;20433;-77
2022/05/02 00:52:40;;;;;;;10.18;6.40;;;7.80;99.90;;;;;;5109823;28;20389;-76
2022/05/02 00:55:06;;;;;;;7.87;5.67;;;7.70;99.90;;;;;;5110038;28;20758;-76
2022/05/02 00:57:32;;;;;;;7.93;5.78;;;7.70;99.90;;;;;;5110093;28;20471;-77
2022/05/02 00:59:58;;;;;;;8.25;5.40;;;7.70;99.90;;;;;;5110062;28;20401;-77
2022/05/02 01:02:24;;;;;;;9.07;5.70;;;7.70;99.90;;;;;;5110081;28;20399;-77
2022/05/02 01:04:49;;;;;;;8.93;5.63;;;7.70;99.90;;;;;;5109662;28;20797;-76
2022/05/02 01:07:21;;;;;;;7.18;5.68;;;7.60;99.90;;;;;;5109699;28;20403;-78
2022/05/02 01:09:50;;;;;;;8.07;5.18;;;7.60;99.90;;;;;;5075735;28;20802;-78
2022/05/02 01:12:24;;;;;;;8.13;5.10;;;7.60;99.90;;;;;;5109776;28;20623;-79
2022/05/02 01:14:53;;;;;;;7.13;4.88;;;7.60;99.90;;;;;;5090995;28;20405;-79
2022/05/02 01:17:19;;;;;;;6.90;5.85;;;7.60;99.90;;;;;;5109062;28;20428;-78
2022/05/02 01:19:45;;;;;;;6.70;5.03;;;7.60;99.90;;;;;;5109501;28;20445;-79
2022/05/02 01:22:11;;;;;;;10.18;5.90;;;7.60;99.90;;;;;;5074672;28;20404;-78
2022/05/02 01:24:43;;;;;;;7.03;5.70;;;7.60;99.90;;;;;;5091232;28;20964;-79
2022/05/02 01:27:10;;;;;;;6.93;5.50;;;7.50;99.90;;;;;;5109121;28;20389;-76
2022/05/02 01:29:37;;;;;;;7.97;5.25;;;7.50;99.90;;;;;;5100577;28;20416;-77
2022/05/02 01:32:06;;;;;;;8.45;5.50;;;7.50;99.90;;;;;;5090811;28;20920;-76
2022/05/02 01:34:36;;;;;;;7.43;5.75;;;7.40;99.90;;;;;;5109247;28;20472;-76
2022/05/02 01:37:03;;;;;;;8.93;5.40;;;7.40;99.90;;;;;;5108736;28;20415;-76
2022/05/02 01:39:29;;;;;;;8.18;5.70;;;7.40;99.90;;;;;;5109546;28;20409;-77
2022/05/02 01:41:59;;;;;;;7.43;5.70;;;7.40;99.90;;;;;;5109112;28;20396;-76
2022/05/02 01:44:24;;;;;;;9.93;6.25;;;7.30;99.90;;;;;;5109033;28;20420;-76
2022/05/02 01:46:51;;;;;;;9.20;6.47;;;7.30;99.90;;;;;;5087341;28;20481;-76
2022/05/02 01:49:17;;;;;;;7.05;6.10;;;7.30;99.90;;;;;;5088885;28;20402;-76
2022/05/02 01:51:42;;;;;;;8.02;6.60;;;7.30;99.90;;;;;;5087497;28;20409;-76
2022/05/02 01:54:08;;;;;;;8.93;6.47;;;7.30;99.90;;;;;;5087119;28;20484;-76
2022/05/02 01:56:34;;;;;;;8.63;6.45;;;7.30;99.90;;;;;;5070381;28;20421;-76
2022/05/02 01:59:00;;;;;;;8.48;6.10;;;7.20;99.90;;;;;;5088499;28;20551;-76
2022/05/02 02:01:25;;;;;;;9.40;6.18;;;7.20;99.90;;;;;;5088596;28;20958;-76
2022/05/02 02:03:51;;;;;;;8.80;6.13;;;7.10;99.90;;;;;;5099106;28;20397;-76
2022/05/02 02:06:17;;;;;;;8.30;6.18;;;7.10;99.90;;;;;;5108767;28;20876;-76
2022/05/02 02:08:42;;;;;;;9.40;6.50;;;7.10;99.90;;;;;;5108970;28;20889;-76
2022/05/02 02:11:09;;;;;;;8.60;7.22;;;7.10;99.90;;;;;;5090441;28;20412;-76
2022/05/02 02:13:36;;;;;;;8.15;6.72;;;7.00;99.90;;;;;;5108294;28;20402;-76
2022/05/02 02:16:06;;;;;;;8.60;7.03;;;7.00;99.90;;;;;;5108812;28;20392;-76
2022/05/02 02:18:32;;;;;;;8.57;6.97;;;7.00;99.90;;;;;;5089721;28;20408;-76
2022/05/02 02:20:58;;;;;;;9.77;7.67;;;7.00;99.90;;;;;;5088835;28;20420;-76
2022/05/02 02:23:23;;;;;;;10.17;7.03;;;7.00;99.90;;;;;;5107654;28;20827;-76
2022/05/02 02:25:50;;;;;;;9.02;6.55;;;7.00;99.90;;;;;;5089575;28;20424;-76
2022/05/02 02:28:15;;;;;;;8.55;6.90;;;6.90;99.90;;;;;;5106401;28;20455;-76
2022/05/02 02:30:42;;;;;;;10.45;7.28;;;6.90;99.90;;;;;;5107210;28;20399;-76
2022/05/02 02:33:08;;;;;;;10.18;7.00;;;6.90;99.90;;;;;;5089882;28;20432;-76
2022/05/02 02:35:34;;;;;;;10.17;7.90;;;6.80;99.90;;;;;;5107343;28;20496;-76
2022/05/02 02:38:00;;;;;;;11.40;7.97;;;6.90;99.90;;;;;;5089236;28;20511;-79
2022/05/02 02:40:25;;;;;;;10.23;7.60;;;6.80;99.90;;;;;;5107361;28;20416;-79
2022/05/02 02:42:51;;;;;;;7.95;7.10;;;6.80;99.90;;;;;;5107532;28;20472;-78
2022/05/02 02:45:16;;;;;;;7.90;7.10;;;6.80;99.90;;;;;;5107511;28;20512;-76
2022/05/02 02:47:44;;;;;;;9.48;7.68;;;6.80;99.90;;;;;;5107927;28;20403;-76
2022/05/02 02:50:10;;;;;;;9.95;7.47;;;6.80;99.90;;;;;;5108652;28;20400;-76
2022/05/02 02:52:35;;;;;;;8.23;6.63;;;6.80;99.90;;;;;;5107934;28;20400;-76
2022/05/02 02:55:01;;;;;;;9.68;7.63;;;6.70;99.90;;;;;;5106614;28;20761;-76
2022/05/02 02:57:27;;;;;;;9.30;7.60;;;6.70;99.90;;;;;;5086190;28;20455;-76
2022/05/02 02:59:53;;;;;;;9.43;7.28;;;6.70;99.90;;;;;;5086431;28;20406;-76
2022/05/02 03:02:19;;;;;;;9.77;8.60;;;6.70;99.90;;;;;;5089702;28;20390;-77
2022/05/02 03:07:29;;;;;;;10.65;8.43;;;6.60;99.90;;;;;;5107960;28;20409;-76
2022/05/02 03:09:57;;;;;;;14.27;8.67;;;6.60;99.90;;;;;;5107682;28;20465;-76
2022/05/02 03:12:23;;;;;;;11.48;8.60;;;6.60;99.90;;;;;;5108259;28;20408;-76
2022/05/02 03:14:49;;;;;;;10.98;8.35;;;6.50;99.90;;;;;;5107979;28;20392;-76
2022/05/02 03:17:14;;;;;;;10.20;8.67;;;6.50;99.90;;;;;;5107667;28;20397;-76
2022/05/02 03:19:40;;;;;;;10.77;8.67;;;6.50;99.90;;;;;;5107848;28;20427;-76
2022/05/02 03:22:06;;;;;;;12.05;9.10;;;6.50;99.90;;;;;;5090037;28;20488;-76
2022/05/02 03:24:31;;;;;;;12.13;8.73;;;6.50;99.90;;;;;;5107783;28;20893;-76
2022/05/02 03:26:57;;;;;;;10.70;8.60;;;6.40;99.90;;;;;;5089326;28;20901;-76
2022/05/02 03:29:23;;;;;;;11.82;8.57;;;6.50;99.90;;;;;;5089755;28;20404;-77
2022/05/02 03:31:48;;;;;;;11.97;9.37;;;6.40;99.90;;;;;;5107678;28;20424;-76
2022/05/02 03:34:14;;;;;;;10.15;8.32;;;6.40;99.90;;;;;;5089797;28;20438;-76
2022/05/02 03:36:40;;;;;;;10.38;8.48;;;6.40;99.90;;;;;;5072038;28;20397;-76
2022/05/02 03:39:06;;;;;;;11.10;9.30;;;6.30;99.90;;;;;;5107961;28;21023;-76
2022/05/02 03:41:31;;;;;;;11.48;8.85;;;6.30;99.90;;;;;;5107770;28;20396;-76
2022/05/02 03:43:58;;;;;;;11.43;9.07;;;6.30;99.90;;;;;;5089034;28;20757;-76
2022/05/02 03:46:24;;;;;;;13.15;9.27;;;6.20;99.90;;;;;;5107263;28;20472;-77
2022/05/02 03:48:50;;;;;;;11.85;9.23;;;6.20;99.90;;;;;;5106189;28;20466;-76
2022/05/02 03:51:16;;;;;;;9.85;8.55;;;6.20;99.90;;;;;;5089775;28;20401;-76
2022/05/02 03:53:42;;;;;;;10.43;8.68;;;6.20;99.90;;;;;;5111191;28;20412;-76
2022/05/02 03:56:08;;;;;;;11.23;9.33;;;6.10;99.90;;;;;;5110730;28;20404;-76
2022/05/02 03:58:33;;;;;;;10.93;9.40;;;6.10;99.90;;;;;;5111139;28;20989;-76
2022/05/02 04:00:59;;;;;;;10.40;8.32;;;6.10;99.90;;;;;;5111246;28;20909;-76
2022/05/02 04:03:25;;;;;;;10.05;8.38;;;6.10;99.90;;;;;;5111166;28;20400;-76
2022/05/02 04:05:51;;;;;;;10.50;9.40;;;6.10;99.90;;;;;;5111196;28;20499;-76
2022/05/02 04:08:16;;;;;;;10.70;9.05;;;6.10;99.90;;;;;;5092755;28;20411;-76
2022/05/02 04:10:42;;;;;;;11.00;8.80;;;6.10;99.90;;;;;;5110162;28;20432;-76
2022/05/02 04:13:08;;;;;;;10.20;9.07;;;6.10;99.90;;;;;;5110933;28;20452;-76
2022/05/02 04:15:34;;;;;;;11.10;8.85;;;6.10;99.90;;;;;;5110973;28;20408;-76
2022/05/02 04:18:00;;;;;;;14.05;9.10;;;6.10;99.90;;;;;;5075650;28;20404;-76
2022/05/02 04:20:26;;;;;;;11.00;9.47;;;6.10;99.90;;;;;;5110744;28;20389;-76
2022/05/02 04:22:52;;;;;;;12.93;10.20;;;6.10;99.90;;;;;;5110826;28;20408;-76
2022/05/02 04:25:17;;;;;;;11.88;9.38;;;6.00;99.90;;;;;;5110491;28;20431;-76
2022/05/02 04:27:43;;;;;;;12.48;9.32;;;6.10;99.90;;;;;;5110600;28;20420;-76
2022/05/02 04:30:11;;;;;;;14.53;11.27;;;6.10;99.90;;;;;;5110645;28;20403;-76
2022/05/02 04:32:37;;;;;;;12.93;10.32;;;6.10;99.90;;;;;;5092275;28;20535;-75
2022/05/02 04:35:03;;;;;;;11.73;10.23;;;6.10;99.90;;;;;;5110611;28;20442;-76
2022/05/02 04:37:29;;;;;;;11.80;9.75;;;6.10;99.90;;;;;;5110505;28;20392;-76
2022/05/02 04:39:55;;;;;;;13.07;10.23;;;6.10;99.90;;;;;;5092417;28;20453;-76
2022/05/02 04:42:20;;;;;;;13.27;10.25;;;6.20;99.90;;;;;;5091340;28;20404;-76
2022/05/02 04:44:46;;;;;;;11.60;10.25;;;6.20;99.90;;;;;;5108991;28;20916;-76
2022/05/02 04:47:12;;;;;;;12.30;10.63;;;6.30;99.90;;;;;;5091398;28;20858;-76
2022/05/02 04:49:37;;;;;;;13.80;10.77;;;6.30;99.90;;;;;;5109580;28;20542;-76
2022/05/02 04:52:03;;;;;;;13.30;10.77;;;6.40;99.90;;;;;;5090975;28;20457;-76
2022/05/02 04:54:29;;;;;;;13.38;10.45;;;6.40;99.90;;;;;;5109388;28;20432;-76
2022/05/02 04:56:54;;;;;;;12.25;10.38;;;6.40;99.90;;;;;;5087058;28;20536;-76
2022/05/02 04:59:20;;;;;;;11.17;9.90;;;6.50;99.90;;;;;;5087608;28;20406;-75
2022/05/02 05:01:46;;;;;;;12.95;10.93;;;6.50;99.90;;;;;;5088681;28;20398;-76
2022/05/02 05:04:11;;;;;;;11.15;9.95;;;6.60;99.90;;;;;;5070611;28;20825;-76
2022/05/02 05:06:37;;;;;;;12.00;10.63;;;6.70;99.90;;;;;;5087156;28;20406;-76
2022/05/02 05:09:03;;;;;;;11.60;10.38;;;6.70;99.90;;;;;;5088683;28;20741;-76
2022/05/02 05:11:31;;;;;;;11.57;9.93;;;6.80;99.90;;;;;;5093818;28;20438;-76
2022/05/02 05:17:33;;;;;;;12.10;10.63;;;6.90;99.90;;;;;;5108242;28;20448;-76
2022/05/02 05:20:10;;;;;;;12.80;10.40;;;7.00;99.90;;;;;;5108652;28;20426;-76
2022/05/02 05:23:01;;;;;;;12.00;10.48;;;7.10;99.90;;;;;;5069596;28;20414;-76
2022/05/02 05:26:02;;;;;;;12.68;11.20;;;7.20;99.90;;;;;;5088241;28;20550;-76
2022/05/02 05:28:44;;;;;;;14.73;11.77;;;7.30;99.90;;;;;;5070361;28;20410;-76
2022/05/02 05:31:33;;;;;;;12.55;11.15;;;7.40;99.90;;;;;;5088498;28;20438;-76
2022/05/02 05:34:06;;;;;;;14.70;10.88;;;7.50;99.90;;;;;;5070207;28;20418;-76
2022/05/02 05:36:43;;;;;;;13.38;11.35;;;7.60;99.90;;;;;;5070291;28;20410;-76
2022/05/02 05:39:35;;;;;;;13.48;10.23;;;7.70;99.90;;;;;;5073980;28;20420;-76
2022/05/02 05:42:21;;;;;;;11.60;9.93;;;7.80;99.90;;;;;;5080298;28;20961;-77
2022/05/02 05:44:57;;;;;;;12.00;10.02;;;7.90;99.90;;;;;;5089869;28;20443;-77
2022/05/02 05:47:42;;;;;;;9.48;8.25;;;8.00;99.90;;;;;;5087521;28;21183;-76
2022/05/02 05:50:32;;;;;;;9.60;8.20;;;8.10;99.90;;;;;;5103380;28;20956;-77
2022/05/02 05:53:25;;;;;;;9.75;8.07;;;8.10;99.90;;;;;;5089601;28;20482;-78
2022/05/02 05:56:16;;;;;;;9.52;8.13;;;8.20;99.90;;;;;;5072551;28;20413;-77
2022/05/02 05:59:05;;;;;;;10.00;8.13;;;8.30;99.90;;;;;;5089375;28;20972;-77
2022/05/02 06:01:50;;;;;;;9.83;8.07;;;8.40;99.90;;;;;;5108317;28;20933;-77
2022/05/02 06:04:16;;;;;;;8.57;6.85;;;8.40;99.90;;;;;;5108843;28;20420;-77
2022/05/02 06:06:42;;;;;;;8.97;6.43;;;8.50;99.90;;;;;;5107686;28;20685;-78
2022/05/02 06:09:10;;;;;;;8.80;6.60;;;8.50;99.90;;;;;;5090430;28;20388;-78
2022/05/02 06:11:38;;;;;;;8.07;6.03;;;8.50;99.90;;;;;;5090208;28;20401;-78
2022/05/02 06:14:05;;;;;;;8.15;7.00;;;8.60;99.90;;;;;;5108291;28;20396;-77
2022/05/02 06:19:25;;;;;;;8.40;6.32;;;8.70;99.90;;;;;;5090214;28;20413;-77
2022/05/02 06:21:52;;;;;;;9.35;6.32;;;8.70;99.90;;;;;;5090027;28;20811;-77
2022/05/02 06:24:18;;;;;;;7.25;6.25;;;8.80;99.90;;;;;;5108502;28;20978;-77
2022/05/02 06:26:45;;;;;;;9.20;6.20;;;8.80;99.90;;;;;;5089935;28;20436;-77
2022/05/02 06:29:11;;;;;;;8.80;6.00;;;8.90;99.90;;;;;;5090387;28;20405;-78
2022/05/02 06:31:44;;;;;;;7.78;5.20;;;9.00;99.90;;;;;;5108335;28;20528;-77
2022/05/02 06:34:11;;;;;;;6.20;4.93;;;9.00;99.90;;;;;;5108463;28;20385;-78
2022/05/02 06:37:11;;;;;;;8.45;4.88;;;9.00;99.90;;;;;;5089999;28;20864;-77
2022/05/02 06:40:02;;;;;;;6.60;4.10;;;9.10;99.90;;;;;;5108244;28;20965;-77
2022/05/02 06:42:58;;;;;;;7.35;4.20;;;9.20;99.90;;;;;;5107866;28;20416;-77
2022/05/02 06:45:51;;;;;;;7.47;4.47;;;9.30;99.90;;;;;;5068269;28;20439;-77
2022/05/02 06:48:28;;;;;;;5.10;3.70;;;9.30;99.90;;;;;;5089807;28;20413;-78
2022/05/02 06:51:06;;;;;;;5.65;3.53;;;9.40;99.90;;;;;;5107686;28;20404;-78
2022/05/02 06:54:09;;;;;;;5.45;3.10;;;9.40;99.90;;;;;;5108341;28;20808;-78
2022/05/02 06:56:56;;;;;;;6.03;3.25;;;9.50;99.90;;;;;;5076498;28;20416;-78
2022/05/02 06:59:57;;;;;;;5.22;3.20;;;9.60;99.90;;;;;;5089935;28;20819;-78
2022/05/02 07:02:43;;;;;;;4.63;2.75;;;9.60;99.90;;;;;;5108205;28;20396;-77
2022/05/02 07:05:25;;;;;;;4.65;2.85;;;9.70;99.90;;;;;;5107920;28;20427;-78
2022/05/02 07:08:05;;;;;;;5.60;2.83;;;9.80;99.90;;;;;;5089820;28;20443;-77
2022/05/02 07:10:35;;;;;;;3.95;2.70;;;9.90;99.90;;;;;;5107787;28;20893;-77
2022/05/02 07:13:19;;;;;;;4.55;2.60;;;9.90;99.90;;;;;;5107558;28;20415;-77
2022/05/02 07:15:51;;;;;;;3.33;2.00;;;9.90;99.90;;;;;;5107698;28;20396;-78
2022/05/02 07:18:28;;;;;;;3.38;2.10;;;10.00;99.90;;;;;;5107927;28;20404;-77
2022/05/02 07:21:01;;;;;;;3.90;2.25;;;10.10;99.90;;;;;;5107517;28;20404;-77
2022/05/02 07:24:04;;;;;;;3.63;2.00;;;10.10;99.90;;;;;;5107613;28;20437;-77
2022/05/02 07:26:33;;;;;;;4.60;2.10;;;10.10;99.90;;;;;;5107993;28;20407;-77
2022/05/02 07:29:01;;;;;;;3.60;1.90;;;10.20;99.90;;;;;;5111970;28;20403;-78
2022/05/02 07:31:28;;;;;;;4.10;1.70;;;10.30;99.90;;;;;;5111580;28;20441;-78
2022/05/02 07:33:55;;;;;;;4.07;2.00;;;10.30;99.90;;;;;;5110358;28;20400;-77
2022/05/02 07:36:23;;;;;;;3.25;1.83;;;10.40;99.90;;;;;;5093015;28;20408;-78
2022/05/02 07:38:54;;;;;;;3.47;1.90;;;10.50;99.90;;;;;;5092514;28;20453;-77
2022/05/02 07:41:26;;;;;;;3.40;2.40;;;10.50;99.90;;;;;;5092521;28;20405;-77
2022/05/02 07:43:56;;;;;;;3.57;2.17;;;10.60;99.90;;;;;;5091844;28;20901;-76
2022/05/02 07:46:27;;;;;;;4.70;2.20;;;10.60;99.90;;;;;;5093025;28;20408;-78
2022/05/02 07:48:55;;;;;;;4.72;2.13;;;10.70;99.90;;;;;;5093509;28;20411;-78
2022/05/02 07:51:22;;;;;;;5.53;2.13;;;10.80;99.90;;;;;;5111616;28;20487;-77
2022/05/02 07:53:50;;;;;;;3.58;2.28;;;10.80;99.90;;;;;;5111225;28;20396;-76
2022/05/02 07:56:17;;;;;;;5.18;2.72;;;10.90;99.90;;;;;;5111482;28;20396;-78
2022/05/02 07:58:45;;;;;;;3.40;2.10;;;11.00;99.90;;;;;;5076041;28;20480;-77
2022/05/02 08:01:13;;;;;;;3.50;2.17;;;11.10;99.90;;;;;;5111316;28;20408;-78
2022/05/02 08:03:38;;;;;;;3.63;2.28;;;11.20;99.90;;;;;;5092724;28;20524;-77
2022/05/02 08:06:29;;;;;;;5.93;2.58;;;11.30;99.90;;;;;;5110226;28;20899;-78
2022/05/02 08:09:22;;;;;;;6.30;3.03;;;11.40;99.90;;;;;;5092332;28;20404;-78
2022/05/02 08:12:22;;;;;;;5.80;2.45;;;11.50;99.90;;;;;;5095236;28;20595;-77
2022/05/02 08:15:12;;;;;;;4.05;2.80;;;11.60;99.90;;;;;;5109985;28;20500;-78
2022/05/02 08:17:47;;;;;;;4.28;2.55;;;11.70;99.90;;;;;;5110548;28;20535;-78
2022/05/02 08:20:23;;;;;;;4.68;2.65;;;11.70;99.90;;;;;;5088574;28;20810;-78
2022/05/02 08:29:45;;;;;;;6.23;3.10;;;11.90;99.90;;;;;;5089669;28;20441;-77
2022/05/02 08:32:30;;;;;;;5.75;3.20;;;12.00;99.90;;;;;;5067053;28;20414;-78
2022/05/02 08:35:07;;;;;;;6.22;3.28;;;12.10;99.90;;;;;;5096476;28;20454;-78
2022/05/02 08:37:54;;;;;;;6.13;3.90;;;12.10;99.90;;;;;;5106716;28;20393;-78
2022/05/02 08:40:25;;;;;;;4.25;3.50;;;12.20;99.90;;;;;;5109765;28;20832;-78
2022/05/02 08:43:11;;;;;;;5.72;3.30;;;12.30;99.90;;;;;;5090868;28;20444;-78
2022/05/02 08:45:58;;;;;;;5.40;3.30;;;12.40;99.90;;;;;;5088315;28;20437;-78
2022/05/02 08:48:29;;;;;;;4.75;3.70;;;12.50;99.90;;;;;;5089885;28;20413;-77
2022/05/02 08:51:22;;;;;;;6.27;3.60;;;12.50;99.90;;;;;;5088937;28;20417;-78
2022/05/02 08:54:18;;;;;;;6.63;3.90;;;12.60;99.90;;;;;;5091379;28;20454;-78
2022/05/02 08:57:10;;;;;;;5.82;4.22;;;12.70;99.90;;;;;;5091844;28;20400;-78
2022/05/02 08:59:45;;;;;;;6.50;4.22;;;12.70;99.90;;;;;;5091912;28;20805;-78
2022/05/02 09:02:25;;;;;;;8.43;4.90;;;12.90;99.90;;;;;;5110117;28;20408;-78
2022/05/02 09:05:16;;;;;;;6.40;4.15;;;13.00;99.90;;;;;;5109897;28;20515;-78
2022/05/02 09:08:09;;;;;;;7.32;5.00;;;13.10;99.90;;;;;;5091413;28;20416;-78
2022/05/02 09:10:56;;;;;;;9.00;4.73;;;13.20;99.10;;;;;;5109855;28;20763;-78
2022/05/02 09:13:36;;;;;;;7.00;4.20;;;13.30;99.40;;;;;;5109826;28;20408;-78
2022/05/02 09:16:24;;;;;;;8.27;4.88;;;13.40;99.30;;;;;;5090243;28;20417;-78
2022/05/02 09:19:10;;;;;;;7.45;5.00;;;13.50;98.60;;;;;;5109490;28;20407;-78
2022/05/02 09:22:01;;;;;;;6.30;4.60;;;13.60;98.90;;;;;;5091378;28;20405;-78
2022/05/02 09:24:59;;;;;;;8.32;5.03;;;14.00;98.40;;;;;;5091258;28;20452;-78
2022/05/02 09:27:36;;;;;;;7.30;5.10;;;14.60;97.40;;;;;;5109390;28;20474;-79
2022/05/02 09:30:11;;;;;;;6.22;5.30;;;15.20;96.20;;;;;;5090939;28;20401;-78
2022/05/02 09:32:46;;;;;;;8.83;5.10;;;15.70;95.20;;;;;;5109433;28;20444;-79
2022/05/02 09:35:24;;;;;;;6.20;4.93;;;16.10;93.50;;;;;;5109617;28;20979;-79
2022/05/02 09:37:55;;;;;;;7.35;5.05;;;16.40;92.80;;;;;;5109124;28;20463;-79
2022/05/02 09:40:33;;;;;;;8.73;5.50;;;16.80;92.00;;;;;;5109134;28;20400;-79
2022/05/02 09:43:25;;;;;;;7.25;5.50;;;17.10;90.90;;;;;;5073923;28;20419;-79
2022/05/02 09:51:49;;;;;;;8.03;5.87;;;17.80;85.50;;;;;;5088599;28;20410;-79
2022/05/02 09:56:38;;;;;;;6.97;5.30;;;18.00;82.70;;;;;;5088913;28;20413;-79
2022/05/02 09:57:21;;;;;;;6.40;5.72;;;18.20;84.00;;;;;;5070179;28;20493;-79
2022/05/02 10:02:48;;;;;;;8.67;5.60;;;18.40;79.30;;;;;;5066816;28;20857;-79
2022/05/02 10:05:39;;;;;;;7.18;5.20;;;18.60;77.80;;;;;;5070614;28;20433;-79
2022/05/02 10:08:38;;;;;;;6.87;5.33;;;18.80;78.80;;;;;;5060856;28;20406;-79
2022/05/02 10:11:19;;;;;;;7.60;5.70;;;19.00;74.40;;;;;;5081404;28;20418;-79
2022/05/02 10:14:22;;;;;;;7.27;5.33;;;19.10;74.70;;;;;;5088373;28;20477;-79
2022/05/02 10:17:08;;;;;;;5.97;4.68;;;19.30;73.10;;;;;;5069954;28;20410;-79
2022/05/02 10:19:39;;;;;;;8.32;5.07;;;19.40;74.90;;;;;;5087812;28;20414;-79
2022/05/02 10:22:22;;;;;;;6.68;5.10;;;19.60;73.50;;;;;;5087893;28;20406;-79
2022/05/02 10:24:56;;;;;;;6.13;4.63;;;19.80;72.50;;;;;;5052977;28;20430;-79
2022/05/02 10:27:50;;;;;;;6.50;5.60;;;19.90;72.50;;;;;;5088322;28;20406;-79
2022/05/02 10:30:18;;;;;;;7.57;5.57;;;20.20;69.70;;;;;;5088258;28;20908;-79
2022/05/02 10:32:50;;;;;;;6.00;5.15;;;20.20;68.80;;;;;;5088025;28;20398;-79
2022/05/02 10:35:18;;;;;;;7.47;5.75;;;20.30;65.80;;;;;;5088224;28;20773;-79
2022/05/02 10:38:04;;;;;;;6.47;5.10;;;20.30;65.90;;;;;;5070145;28;20498;-79
2022/05/02 10:40:41;;;;;;;6.45;4.97;;;20.30;67.30;;;;;;5087922;28;20475;-79
2022/05/02 10:43:12;;;;;;;7.05;4.82;;;20.40;67.00;;;;;;5088106;28;20904;-79
2022/05/02 10:45:40;;;;;;;6.93;4.97;;;20.50;65.40;;;;;;5069573;28;20437;-79
2022/05/02 10:48:29;;;;;;;5.35;4.78;;;20.70;67.00;;;;;;5069785;28;20763;-79
2022/05/02 10:51:14;;;;;;;6.32;4.80;;;20.90;65.30;;;;;;5069219;28;20500;-79
2022/05/02 10:54:09;;;;;;;6.13;5.05;;;20.90;64.80;;;;;;5087765;28;20481;-79
2022/05/02 10:56:47;;;;;;;6.13;4.60;;;20.90;62.40;;;;;;5069709;28;20402;-79
2022/05/02 10:59:14;;;;;;;5.73;4.50;;;20.90;63.20;;;;;;5069719;28;20421;-79
2022/05/02 11:02:20;;;;;;;6.57;4.73;;;21.00;62.70;;;;;;5090385;28;20418;-79
2022/05/02 11:05:03;;;;;;;6.25;4.47;;;20.80;62.10;;;;;;5073163;28;20469;-79
2022/05/02 11:07:53;;;;;;;5.83;4.57;;;20.70;63.50;;;;;;5092060;28;20462;-79
2022/05/02 11:10:27;;;;;;;6.45;4.85;;;20.80;62.30;;;;;;5073913;28;20417;-79
2022/05/02 11:13:16;;;;;;;6.75;5.07;;;20.90;62.20;;;;;;5073782;28;20771;-79
2022/05/02 11:16:19;;;;;;;6.22;4.70;;;21.10;62.30;;;;;;5072734;28;20425;-79
2022/05/02 11:22:21;;;;;;;6.93;4.72;;;21.00;60.80;;;;;;5073189;28;20421;-79
2022/05/02 11:24:52;;;;;;;5.80;4.10;;;20.90;62.10;;;;;;5091651;28;20872;-79
2022/05/02 11:27:48;;;;;;;6.93;4.63;;;20.80;63.40;;;;;;5073626;28;20448;-79
2022/05/02 11:30:22;;;;;;;10.50;6.05;;;20.90;62.50;;;;;;5073641;28;20422;-79
2022/05/02 11:33:15;;;;;;;7.95;4.80;;;21.10;62.80;;;;;;5091237;28;20405;-79
2022/05/02 11:35:49;;;;;;;7.18;4.60;;;21.10;62.40;;;;;;5073274;28;20402;-79
2022/05/02 11:38:41;;;;;;;6.07;4.53;;;21.20;62.30;;;;;;5091803;28;20454;-79
2022/05/02 11:41:18;;;;;;;5.80;4.80;;;21.20;59.60;;;;;;5056298;28;20443;-79
2022/05/02 11:43:45;;;;;;;6.03;4.72;;;21.20;60.00;;;;;;5095793;28;20404;-79
2022/05/02 11:46:22;;;;;;;12.13;5.83;;;21.10;60.90;;;;;;5075612;28;20844;-79
2022/05/02 11:48:48;;;;;;;6.45;4.93;;;21.10;60.50;;;;;;5075946;28;20419;-79
2022/05/02 11:51:30;;;;;;;16.60;7.30;;;21.00;60.50;;;;;;5111411;28;20400;-79
2022/05/02 11:53:58;;;;;;;9.13;5.00;;;21.10;60.10;;;;;;5111109;28;20400;-79
2022/05/02 11:56:36;;;;;;;6.38;4.47;;;21.10;59.30;;;;;;5093035;28;20449;-79
2022/05/02 11:59:11;;;;;;;5.03;4.20;;;21.20;60.20;;;;;;5111282;28;20388;-79
2022/05/02 12:01:41;;;;;;;6.80;5.10;;;21.30;60.80;;;;;;5110993;28;21270;-79
2022/05/02 12:04:08;;;;;;;5.93;4.57;;;21.40;59.70;;;;;;5076064;28;20435;-79
2022/05/02 12:06:42;;;;;;;7.13;5.38;;;21.40;60.00;;;;;;5092992;28;20996;-79
2022/05/02 12:09:22;;;;;;;7.05;4.18;;;21.30;59.70;;;;;;5111198;28;20419;-79
2022/05/02 12:11:56;;;;;;;6.63;4.80;;;21.40;60.80;;;;;;5110671;28;20790;-79
2022/05/02 12:14:22;;;;;;;5.40;4.13;;;21.60;59.00;;;;;;5092314;28;20408;-79
2022/05/02 12:17:09;;;;;;;7.25;4.47;;;21.70;59.30;;;;;;5111078;28;20400;-79
2022/05/02 12:19:36;;;;;;;6.32;4.47;;;21.80;58.00;;;;;;5110802;28;20435;-79
2022/05/02 12:22:05;;;;;;;6.80;4.00;;;21.80;56.90;;;;;;5092831;28;20408;-79
2022/05/02 12:24:34;;;;;;;4.38;3.90;;;21.70;57.90;;;;;;5110401;28;20420;-79
2022/05/02 12:27:00;;;;;;;5.75;4.20;;;21.80;57.80;;;;;;5092204;28;20418;-79
2022/05/02 12:29:27;;;;;;;4.65;3.83;;;21.90;56.80;;;;;;5110865;28;20388;-79
2022/05/02 12:32:01;;;;;;;5.20;3.70;;;21.90;57.10;;;;;;5092311;28;20461;-79
2022/05/02 12:34:40;;;;;;;7.37;4.03;;;21.90;57.20;;;;;;5092745;28;20443;-79
2022/05/02 12:37:23;;;;;;;4.57;4.07;;;22.00;58.10;;;;;;5110576;28;20419;-79
2022/05/02 12:40:02;;;;;;;7.35;3.53;;;22.00;57.40;;;;;;5110473;28;20416;-79
2022/05/02 12:42:40;;;;;;;5.03;3.65;;;22.10;58.20;;;;;;5091902;28;20865;-79
2022/05/02 12:45:11;;;;;;;5.15;3.90;;;22.30;56.90;;;;;;5109997;28;20838;-79
2022/05/02 12:47:59;;;;;;;4.70;3.88;;;22.30;56.80;;;;;;5110433;28;20404;-79
2022/05/02 12:50:28;;;;;;;4.20;3.42;;;22.30;55.30;;;;;;5091858;28;20412;-79
2022/05/02 12:53:01;;;;;;;5.22;3.60;;;22.30;56.50;;;;;;5110212;28;20428;-79
2022/05/02 12:55:32;;;;;;;5.95;3.92;;;22.40;55.90;;;;;;5110412;28;20704;-79
2022/05/02 13:00:45;;;;;;;4.00;3.40;;;22.50;56.90;;;;;;5110294;28;20484;-79
2022/05/02 13:03:10;;;;;;;4.05;3.30;;;22.70;57.40;;;;;;5110003;28;20454;-79
2022/05/02 13:05:40;;;;;;;4.87;3.80;;;22.80;57.20;;;;;;5109973;28;20421;-79
2022/05/02 13:08:12;;;;;;;5.32;3.80;;;22.90;55.70;;;;;;5110338;28;20432;-79
2022/05/02 13:10:41;;;;;;;6.67;3.80;;;22.90;54.70;;;;;;5091475;28;20424;-79
2022/05/02 13:13:12;;;;;;;5.10;3.00;;;22.90;54.90;;;;;;5091517;28;20405;-79
2022/05/02 13:15:42;;;;;;;6.40;3.70;;;22.90;55.80;;;;;;5109656;28;21023;-79
2022/05/02 13:18:15;;;;;;;5.13;3.30;;;22.80;54.80;;;;;;5091460;28;20408;-79
2022/05/02 13:20:48;;;;;;;5.00;3.10;;;22.90;55.80;;;;;;5090700;28;20404;-79
2022/05/02 13:23:14;;;;;;;5.05;3.22;;;23.30;55.70;;;;;;5109577;28;20410;-79
2022/05/02 13:26:15;;;;;;;4.38;2.75;;;23.60;55.50;;;;;;5107849;28;20420;-79
2022/05/02 13:29:06;;;;;;;4.95;3.13;;;23.80;55.00;;;;;;5091285;28;20553;-79
2022/05/02 13:31:44;;;;;;;5.67;3.30;;;23.90;53.80;;;;;;5109445;28;20428;-79
2022/05/02 13:34:20;;;;;;;4.28;2.50;;;23.80;52.40;;;;;;5091062;28;20416;-79
2022/05/02 13:36:50;;;;;;;3.67;2.50;;;23.70;53.50;;;;;;5109154;28;20396;-79
2022/05/02 13:39:23;;;;;;;3.75;2.50;;;23.80;53.40;;;;;;5091332;28;20745;-79
2022/05/02 13:42:34;;;;;;;3.67;2.80;;;23.80;53.70;;;;;;5109274;28;20447;-79
2022/05/02 13:45:04;;;;;;;3.10;2.20;;;24.00;52.10;;;;;;5030008;28;20432;-79
2022/05/02 13:47:56;;;;;;;5.57;2.65;;;24.40;53.60;;;;;;5109271;28;20399;-79
2022/05/02 13:50:26;;;;;;;3.10;2.30;;;24.70;52.50;;;;;;5109273;28;20392;-79
2022/05/02 13:53:01;;;;;;;2.65;2.00;;;24.90;52.60;;;;;;5109069;28;20392;-79